Etusivu
METAR-TAF:

METAR-TAF

Lentoasemat :

Tromssa, Norja

Tromssan lentoasema

Leveyspiiri: 69-41N, Pituuspiiri: 018-55E, korkeus merenpinnasta: 1 m

Tämänhetkinen sää

Tämä raportti tehtiin 1 tunti ja 8 minuuttia sitten, kello 22.50 UTC
Tuuli 17 kn etelästä
Lämpötila -5°C
Kosteus 58%
Ilmanpaine 1000 hPa
Näkyvyys 10 km tai enemmän
ei pilviä alle 1500 m:ssä eikä cumulonimbus-pilviä

METAR: ENTC 172250Z 19017KT CAVOK M05/M12 Q1000

Aika: 00:58 (23:58 UTC)

Sääennuste

Ennuste voimassa 17. päivästä klo 18 UTC - 18. päivään klo 18 UTC
Tuuli 15 kn etelästä/lounaasta
Näkyvyys 10 km tai enemmän
ei pilviä alle 1500 m:ssä eikä cumulonimbus-pilviä
Todennäköisyys 40% :
Ajoittain
17. päivästä klo 18 UTC - 18. päivään klo 18 UTC
Tuuli 20 kn etelästä puuskistuen 30 kn:hen

TAF: ENTC 1718/1818 20015KT CAVOK PROB40 TEMPO 1718/1818 18020G30KT

Säähavainnot ja -ennusteet yli 4000 lentoasemalta (METAR- ja TAF-raportit).

Käytössä olevat sääasemat on merkitty karttaan keltaisilla ja punaisilla pisteillä.

Aseta hiiri pisteen päälle nähdäksesi sääaseman nimen.

Klikkaa sitten nähdäksesi säähavainnot ja -ennusteet.

Kartan vaihtaminen: klikkaa mustalla rastilla varustettuja vihreitä pisteitä, niin voit zoomata sisään; viivalla varustettua vihreää pistettä, niin voit zoomata ulos tai vihreitä nuolia, niin pääset viereisille kartoille.


METAR-TAF: